sensor_id;sensor_type;location;lat;lon;timestamp;P1;durP1;ratioP1;P2;durP2;ratioP2
14348;SDS011;7258;50.376;8.742;2023-03-23T00:01:55;3.78;;;1.55;;
14348;SDS011;7258;50.376;8.742;2023-03-23T00:03:57;3.63;;;1.60;;
14348;SDS011;7258;50.376;8.742;2023-03-23T00:06:00;3.88;;;1.67;;
14348;SDS011;7258;50.376;8.742;2023-03-23T00:08:06;1.75;;;1.40;;
14348;SDS011;7258;50.376;8.742;2023-03-23T00:10:08;1.65;;;1.50;;
14348;SDS011;7258;50.376;8.742;2023-03-23T00:12:10;1.58;;;1.48;;
14348;SDS011;7258;50.376;8.742;2023-03-23T00:14:15;2.95;;;1.40;;
14348;SDS011;7258;50.376;8.742;2023-03-23T00:16:24;2.80;;;1.40;;
14348;SDS011;7258;50.376;8.742;2023-03-23T00:18:30;2.92;;;1.40;;
14348;SDS011;7258;50.376;8.742;2023-03-23T00:20:35;1.75;;;1.42;;
14348;SDS011;7258;50.376;8.742;2023-03-23T00:22:42;2.92;;;1.52;;
14348;SDS011;7258;50.376;8.742;2023-03-23T00:24:43;1.40;;;1.27;;
14348;SDS011;7258;50.376;8.742;2023-03-23T00:26:46;2.15;;;1.50;;
14348;SDS011;7258;50.376;8.742;2023-03-23T00:28:51;2.22;;;1.52;;
14348;SDS011;7258;50.376;8.742;2023-03-23T00:30:56;2.28;;;1.52;;
14348;SDS011;7258;50.376;8.742;2023-03-23T00:33:01;2.30;;;1.60;;
14348;SDS011;7258;50.376;8.742;2023-03-23T00:35:03;2.42;;;1.70;;
14348;SDS011;7258;50.376;8.742;2023-03-23T00:37:07;2.58;;;1.65;;
14348;SDS011;7258;50.376;8.742;2023-03-23T00:39:09;2.72;;;1.80;;
14348;SDS011;7258;50.376;8.742;2023-03-23T00:41:12;1.73;;;1.30;;
14348;SDS011;7258;50.376;8.742;2023-03-23T00:43:15;2.30;;;1.40;;
14348;SDS011;7258;50.376;8.742;2023-03-23T00:45:17;2.67;;;1.30;;
14348;SDS011;7258;50.376;8.742;2023-03-23T00:47:19;3.10;;;1.48;;
14348;SDS011;7258;50.376;8.742;2023-03-23T00:49:24;2.05;;;1.33;;
14348;SDS011;7258;50.376;8.742;2023-03-23T00:51:27;1.92;;;1.65;;
14348;SDS011;7258;50.376;8.742;2023-03-23T00:53:28;3.40;;;1.75;;
14348;SDS011;7258;50.376;8.742;2023-03-23T00:55:30;2.20;;;1.50;;
14348;SDS011;7258;50.376;8.742;2023-03-23T00:57:33;2.03;;;1.60;;
14348;SDS011;7258;50.376;8.742;2023-03-23T00:59:35;2.80;;;1.90;;
14348;SDS011;7258;50.376;8.742;2023-03-23T01:01:37;2.67;;;1.30;;
14348;SDS011;7258;50.376;8.742;2023-03-23T01:03:39;3.20;;;1.60;;
14348;SDS011;7258;50.376;8.742;2023-03-23T01:05:42;2.33;;;1.63;;
14348;SDS011;7258;50.376;8.742;2023-03-23T01:07:46;2.75;;;1.50;;
14348;SDS011;7258;50.376;8.742;2023-03-23T01:09:48;3.55;;;1.55;;
14348;SDS011;7258;50.376;8.742;2023-03-23T01:11:54;1.60;;;1.30;;
14348;SDS011;7258;50.376;8.742;2023-03-23T01:13:56;2.75;;;1.48;;
14348;SDS011;7258;50.376;8.742;2023-03-23T01:15:58;3.25;;;1.40;;
14348;SDS011;7258;50.376;8.742;2023-03-23T01:18:00;1.55;;;1.42;;
14348;SDS011;7258;50.376;8.742;2023-03-23T01:20:02;2.53;;;1.33;;
14348;SDS011;7258;50.376;8.742;2023-03-23T01:22:07;1.83;;;1.40;;
14348;SDS011;7258;50.376;8.742;2023-03-23T01:24:09;3.15;;;1.40;;
14348;SDS011;7258;50.376;8.742;2023-03-23T01:26:12;2.38;;;1.67;;
14348;SDS011;7258;50.376;8.742;2023-03-23T01:28:15;2.65;;;1.35;;
14348;SDS011;7258;50.376;8.742;2023-03-23T01:30:19;1.48;;;1.38;;
14348;SDS011;7258;50.376;8.742;2023-03-23T01:32:21;1.30;;;1.20;;
14348;SDS011;7258;50.376;8.742;2023-03-23T01:34:23;2.13;;;1.40;;
14348;SDS011;7258;50.376;8.742;2023-03-23T01:36:26;2.88;;;1.60;;
14348;SDS011;7258;50.376;8.742;2023-03-23T01:38:34;4.15;;;1.50;;
14348;SDS011;7258;50.376;8.742;2023-03-23T01:40:36;2.75;;;1.40;;
14348;SDS011;7258;50.376;8.742;2023-03-23T01:42:38;3.17;;;1.58;;
14348;SDS011;7258;50.376;8.742;2023-03-23T01:47:24;1.67;;;1.35;;
14348;SDS011;7258;50.376;8.742;2023-03-23T01:49:27;2.17;;;1.65;;
14348;SDS011;7258;50.376;8.742;2023-03-23T01:51:33;2.13;;;1.40;;
14348;SDS011;7258;50.376;8.742;2023-03-23T01:53:39;1.67;;;1.58;;
14348;SDS011;7258;50.376;8.742;2023-03-23T01:55:45;1.50;;;1.40;;
14348;SDS011;7258;50.376;8.742;2023-03-23T01:57:50;2.72;;;1.30;;
14348;SDS011;7258;50.376;8.742;2023-03-23T01:59:53;2.75;;;1.40;;
14348;SDS011;7258;50.376;8.742;2023-03-23T02:01:58;3.40;;;1.52;;
14348;SDS011;7258;50.376;8.742;2023-03-23T02:04:03;1.67;;;1.23;;
14348;SDS011;7258;50.376;8.742;2023-03-23T02:06:07;1.55;;;1.40;;
14348;SDS011;7258;50.376;8.742;2023-03-23T02:08:09;1.98;;;1.40;;
14348;SDS011;7258;50.376;8.742;2023-03-23T02:10:15;1.75;;;1.55;;
14348;SDS011;7258;50.376;8.742;2023-03-23T02:12:17;1.90;;;1.48;;
14348;SDS011;7258;50.376;8.742;2023-03-23T02:14:19;1.58;;;1.48;;
14348;SDS011;7258;50.376;8.742;2023-03-23T02:16:25;1.52;;;1.30;;
14348;SDS011;7258;50.376;8.742;2023-03-23T02:18:39;2.85;;;1.45;;
14348;SDS011;7258;50.376;8.742;2023-03-23T02:23:31;2.20;;;1.35;;
14348;SDS011;7258;50.376;8.742;2023-03-23T02:25:56;1.60;;;1.33;;
14348;SDS011;7258;50.376;8.742;2023-03-23T02:28:16;1.58;;;1.30;;
14348;SDS011;7258;50.376;8.742;2023-03-23T02:30:35;2.53;;;1.35;;
14348;SDS011;7258;50.376;8.742;2023-03-23T02:33:07;1.45;;;1.20;;
14348;SDS011;7258;50.376;8.742;2023-03-23T02:35:17;2.67;;;1.50;;
14348;SDS011;7258;50.376;8.742;2023-03-23T02:37:22;3.17;;;1.58;;
14348;SDS011;7258;50.376;8.742;2023-03-23T02:39:29;3.03;;;1.52;;
14348;SDS011;7258;50.376;8.742;2023-03-23T02:41:34;1.58;;;1.45;;
14348;SDS011;7258;50.376;8.742;2023-03-23T02:43:42;1.90;;;1.35;;
14348;SDS011;7258;50.376;8.742;2023-03-23T02:45:46;3.03;;;1.92;;
14348;SDS011;7258;50.376;8.742;2023-03-23T02:47:51;2.20;;;1.50;;
14348;SDS011;7258;50.376;8.742;2023-03-23T02:49:56;1.63;;;1.52;;
14348;SDS011;7258;50.376;8.742;2023-03-23T02:51:59;2.53;;;1.58;;
14348;SDS011;7258;50.376;8.742;2023-03-23T02:54:05;3.13;;;2.00;;
14348;SDS011;7258;50.376;8.742;2023-03-23T02:56:09;3.47;;;1.98;;
14348;SDS011;7258;50.376;8.742;2023-03-23T02:58:12;5.82;;;2.15;;
14348;SDS011;7258;50.376;8.742;2023-03-23T03:00:15;2.22;;;1.88;;
14348;SDS011;7258;50.376;8.742;2023-03-23T03:02:18;2.00;;;1.67;;
14348;SDS011;7258;50.376;8.742;2023-03-23T03:04:24;2.05;;;1.80;;
14348;SDS011;7258;50.376;8.742;2023-03-23T03:06:32;2.72;;;1.55;;
14348;SDS011;7258;50.376;8.742;2023-03-23T03:08:44;4.30;;;1.92;;
14348;SDS011;7258;50.376;8.742;2023-03-23T03:10:51;1.52;;;1.42;;
14348;SDS011;7258;50.376;8.742;2023-03-23T03:12:57;1.52;;;1.40;;
14348;SDS011;7258;50.376;8.742;2023-03-23T03:15:07;2.60;;;1.85;;
14348;SDS011;7258;50.376;8.742;2023-03-23T03:17:14;2.15;;;1.50;;
14348;SDS011;7258;50.376;8.742;2023-03-23T03:19:22;2.17;;;1.70;;
14348;SDS011;7258;50.376;8.742;2023-03-23T03:21:28;1.73;;;1.40;;
14348;SDS011;7258;50.376;8.742;2023-03-23T03:23:35;2.67;;;1.70;;
14348;SDS011;7258;50.376;8.742;2023-03-23T03:25:42;1.93;;;1.50;;
14348;SDS011;7258;50.376;8.742;2023-03-23T03:27:47;2.27;;;1.60;;
14348;SDS011;7258;50.376;8.742;2023-03-23T03:29:53;1.97;;;1.87;;
14348;SDS011;7258;50.376;8.742;2023-03-23T03:31:59;2.93;;;1.90;;
14348;SDS011;7258;50.376;8.742;2023-03-23T03:34:05;2.20;;;2.00;;
14348;SDS011;7258;50.376;8.742;2023-03-23T03:36:08;4.43;;;2.00;;
14348;SDS011;7258;50.376;8.742;2023-03-23T03:38:18;2.93;;;2.20;;
14348;SDS011;7258;50.376;8.742;2023-03-23T03:40:21;2.83;;;2.23;;
14348;SDS011;7258;50.376;8.742;2023-03-23T03:42:24;5.90;;;2.00;;
14348;SDS011;7258;50.376;8.742;2023-03-23T03:44:26;2.70;;;2.20;;
14348;SDS011;7258;50.376;8.742;2023-03-23T03:46:28;4.27;;;2.20;;
14348;SDS011;7258;50.376;8.742;2023-03-23T03:48:31;2.40;;;2.20;;
14348;SDS011;7258;50.376;8.742;2023-03-23T03:50:33;3.70;;;2.53;;
14348;SDS011;7258;50.376;8.742;2023-03-23T03:52:35;5.73;;;2.40;;
14348;SDS011;7258;50.376;8.742;2023-03-23T03:54:39;4.27;;;2.63;;
14348;SDS011;7258;50.376;8.742;2023-03-23T03:56:41;3.07;;;2.43;;
14348;SDS011;7258;50.376;8.742;2023-03-23T03:58:45;4.50;;;2.60;;
14348;SDS011;7258;50.376;8.742;2023-03-23T04:00:48;4.57;;;2.50;;
14348;SDS011;7258;50.376;8.742;2023-03-23T04:02:50;4.77;;;2.57;;
14348;SDS011;7258;50.376;8.742;2023-03-23T04:04:54;2.77;;;2.40;;
14348;SDS011;7258;50.376;8.742;2023-03-23T04:06:56;3.10;;;2.63;;
14348;SDS011;7258;50.376;8.742;2023-03-23T04:08:58;2.60;;;2.40;;
14348;SDS011;7258;50.376;8.742;2023-03-23T04:11:03;3.53;;;2.53;;
14348;SDS011;7258;50.376;8.742;2023-03-23T04:13:05;3.37;;;2.50;;
14348;SDS011;7258;50.376;8.742;2023-03-23T04:15:07;6.17;;;2.50;;
14348;SDS011;7258;50.376;8.742;2023-03-23T04:17:10;4.77;;;2.87;;
14348;SDS011;7258;50.376;8.742;2023-03-23T04:19:14;2.87;;;2.57;;
14348;SDS011;7258;50.376;8.742;2023-03-23T04:21:16;4.13;;;2.53;;
14348;SDS011;7258;50.376;8.742;2023-03-23T04:23:19;3.10;;;2.77;;
14348;SDS011;7258;50.376;8.742;2023-03-23T04:25:22;2.70;;;2.50;;
14348;SDS011;7258;50.376;8.742;2023-03-23T04:27:26;3.93;;;2.60;;
14348;SDS011;7258;50.376;8.742;2023-03-23T04:29:29;3.00;;;2.67;;
14348;SDS011;7258;50.376;8.742;2023-03-23T04:31:31;4.43;;;2.80;;
14348;SDS011;7258;50.376;8.742;2023-03-23T04:33:34;3.87;;;2.80;;
14348;SDS011;7258;50.376;8.742;2023-03-23T04:35:37;4.83;;;2.50;;
14348;SDS011;7258;50.376;8.742;2023-03-23T04:37:39;7.10;;;2.90;;
14348;SDS011;7258;50.376;8.742;2023-03-23T04:39:42;4.90;;;2.87;;
14348;SDS011;7258;50.376;8.742;2023-03-23T04:41:45;2.53;;;2.13;;
14348;SDS011;7258;50.376;8.742;2023-03-23T04:43:48;4.17;;;2.70;;
14348;SDS011;7258;50.376;8.742;2023-03-23T04:45:53;6.33;;;2.67;;
14348;SDS011;7258;50.376;8.742;2023-03-23T04:47:58;4.83;;;2.70;;
14348;SDS011;7258;50.376;8.742;2023-03-23T04:50:01;4.17;;;2.40;;
14348;SDS011;7258;50.376;8.742;2023-03-23T04:52:03;4.37;;;2.43;;
14348;SDS011;7258;50.376;8.742;2023-03-23T04:54:05;3.43;;;2.50;;
14348;SDS011;7258;50.376;8.742;2023-03-23T04:56:07;3.30;;;2.50;;
14348;SDS011;7258;50.376;8.742;2023-03-23T04:58:09;4.30;;;2.60;;
14348;SDS011;7258;50.376;8.742;2023-03-23T05:00:16;2.30;;;2.10;;
14348;SDS011;7258;50.376;8.742;2023-03-23T05:02:18;3.50;;;2.33;;
14348;SDS011;7258;50.376;8.742;2023-03-23T05:04:20;4.20;;;2.70;;
14348;SDS011;7258;50.376;8.742;2023-03-23T05:06:22;3.30;;;2.53;;
14348;SDS011;7258;50.376;8.742;2023-03-23T05:08:24;2.53;;;2.30;;
14348;SDS011;7258;50.376;8.742;2023-03-23T05:10:26;3.87;;;2.40;;
14348;SDS011;7258;50.376;8.742;2023-03-23T05:12:28;7.43;;;2.43;;
14348;SDS011;7258;50.376;8.742;2023-03-23T05:14:30;3.33;;;2.80;;
14348;SDS011;7258;50.376;8.742;2023-03-23T05:16:34;2.60;;;2.40;;
14348;SDS011;7258;50.376;8.742;2023-03-23T05:18:37;2.87;;;2.67;;
14348;SDS011;7258;50.376;8.742;2023-03-23T05:20:39;3.17;;;2.30;;
14348;SDS011;7258;50.376;8.742;2023-03-23T05:22:42;5.10;;;2.30;;
14348;SDS011;7258;50.376;8.742;2023-03-23T05:24:45;2.77;;;2.30;;
14348;SDS011;7258;50.376;8.742;2023-03-23T05:26:46;2.33;;;2.13;;
14348;SDS011;7258;50.376;8.742;2023-03-23T05:28:52;2.33;;;2.13;;
14348;SDS011;7258;50.376;8.742;2023-03-23T05:30:54;2.27;;;2.07;;
14348;SDS011;7258;50.376;8.742;2023-03-23T05:32:58;4.47;;;2.17;;
14348;SDS011;7258;50.376;8.742;2023-03-23T05:35:00;2.73;;;1.97;;
14348;SDS011;7258;50.376;8.742;2023-03-23T05:37:03;3.07;;;2.30;;
14348;SDS011;7258;50.376;8.742;2023-03-23T05:39:05;2.50;;;2.00;;
14348;SDS011;7258;50.376;8.742;2023-03-23T05:41:09;3.50;;;2.40;;
14348;SDS011;7258;50.376;8.742;2023-03-23T05:43:12;2.23;;;1.90;;
14348;SDS011;7258;50.376;8.742;2023-03-23T05:45:13;4.17;;;2.23;;
14348;SDS011;7258;50.376;8.742;2023-03-23T05:47:16;3.03;;;2.20;;
14348;SDS011;7258;50.376;8.742;2023-03-23T05:49:19;2.23;;;2.00;;
14348;SDS011;7258;50.376;8.742;2023-03-23T05:51:22;3.57;;;1.87;;
14348;SDS011;7258;50.376;8.742;2023-03-23T05:53:24;2.17;;;2.03;;
14348;SDS011;7258;50.376;8.742;2023-03-23T05:55:26;2.57;;;2.10;;
14348;SDS011;7258;50.376;8.742;2023-03-23T05:57:30;2.00;;;1.80;;
14348;SDS011;7258;50.376;8.742;2023-03-23T05:59:34;2.80;;;1.90;;
14348;SDS011;7258;50.376;8.742;2023-03-23T06:01:37;2.93;;;2.03;;
14348;SDS011;7258;50.376;8.742;2023-03-23T06:03:39;1.73;;;1.63;;
14348;SDS011;7258;50.376;8.742;2023-03-23T06:05:43;2.20;;;1.80;;
14348;SDS011;7258;50.376;8.742;2023-03-23T06:07:45;2.60;;;2.23;;
14348;SDS011;7258;50.376;8.742;2023-03-23T06:09:47;2.20;;;1.97;;
14348;SDS011;7258;50.376;8.742;2023-03-23T06:11:50;2.87;;;2.47;;
14348;SDS011;7258;50.376;8.742;2023-03-23T06:13:53;4.17;;;2.57;;
14348;SDS011;7258;50.376;8.742;2023-03-23T06:15:54;2.87;;;2.00;;
14348;SDS011;7258;50.376;8.742;2023-03-23T06:17:58;2.17;;;2.00;;
14348;SDS011;7258;50.376;8.742;2023-03-23T06:20:00;2.20;;;1.90;;
14348;SDS011;7258;50.376;8.742;2023-03-23T06:22:05;2.97;;;2.20;;
14348;SDS011;7258;50.376;8.742;2023-03-23T06:24:07;2.93;;;1.80;;
14348;SDS011;7258;50.376;8.742;2023-03-23T06:26:10;2.33;;;2.03;;
14348;SDS011;7258;50.376;8.742;2023-03-23T06:28:16;3.07;;;1.83;;
14348;SDS011;7258;50.376;8.742;2023-03-23T06:30:18;1.90;;;1.70;;
14348;SDS011;7258;50.376;8.742;2023-03-23T06:32:20;2.43;;;2.20;;
14348;SDS011;7258;50.376;8.742;2023-03-23T06:34:24;2.03;;;1.70;;
14348;SDS011;7258;50.376;8.742;2023-03-23T06:36:26;2.70;;;1.80;;
14348;SDS011;7258;50.376;8.742;2023-03-23T06:38:29;2.13;;;1.93;;
14348;SDS011;7258;50.376;8.742;2023-03-23T06:40:32;2.50;;;1.77;;
14348;SDS011;7258;50.376;8.742;2023-03-23T06:42:36;3.73;;;1.90;;
14348;SDS011;7258;50.376;8.742;2023-03-23T06:44:42;3.27;;;1.80;;
14348;SDS011;7258;50.376;8.742;2023-03-23T06:46:44;2.90;;;2.00;;
14348;SDS011;7258;50.376;8.742;2023-03-23T06:48:46;3.00;;;1.70;;
14348;SDS011;7258;50.376;8.742;2023-03-23T06:50:49;4.05;;;2.20;;
14348;SDS011;7258;50.376;8.742;2023-03-23T06:52:51;3.72;;;2.10;;
14348;SDS011;7258;50.376;8.742;2023-03-23T06:54:54;2.97;;;1.90;;
14348;SDS011;7258;50.376;8.742;2023-03-23T06:56:56;2.67;;;1.65;;
14348;SDS011;7258;50.376;8.742;2023-03-23T06:59:01;2.05;;;1.83;;
14348;SDS011;7258;50.376;8.742;2023-03-23T07:01:03;2.72;;;1.83;;
14348;SDS011;7258;50.376;8.742;2023-03-23T07:03:07;2.28;;;1.92;;
14348;SDS011;7258;50.376;8.742;2023-03-23T07:05:09;3.03;;;1.70;;
14348;SDS011;7258;50.376;8.742;2023-03-23T07:07:12;4.10;;;1.90;;
14348;SDS011;7258;50.376;8.742;2023-03-23T07:09:14;2.50;;;1.77;;
14348;SDS011;7258;50.376;8.742;2023-03-23T07:11:17;1.92;;;1.73;;
14348;SDS011;7258;50.376;8.742;2023-03-23T07:13:20;2.20;;;1.80;;
14348;SDS011;7258;50.376;8.742;2023-03-23T07:15:22;1.73;;;1.63;;
14348;SDS011;7258;50.376;8.742;2023-03-23T07:17:24;2.42;;;1.98;;
14348;SDS011;7258;50.376;8.742;2023-03-23T07:19:26;3.13;;;1.85;;
14348;SDS011;7258;50.376;8.742;2023-03-23T07:21:28;3.10;;;1.60;;
14348;SDS011;7258;50.376;8.742;2023-03-23T07:23:30;2.38;;;1.80;;
14348;SDS011;7258;50.376;8.742;2023-03-23T07:25:33;2.90;;;1.80;;
14348;SDS011;7258;50.376;8.742;2023-03-23T07:27:40;1.73;;;1.60;;
14348;SDS011;7258;50.376;8.742;2023-03-23T07:29:42;2.17;;;1.63;;
14348;SDS011;7258;50.376;8.742;2023-03-23T07:31:44;2.90;;;1.63;;
14348;SDS011;7258;50.376;8.742;2023-03-23T07:33:46;2.67;;;1.67;;
14348;SDS011;7258;50.376;8.742;2023-03-23T07:35:48;1.90;;;1.70;;
14348;SDS011;7258;50.376;8.742;2023-03-23T07:37:50;2.13;;;1.92;;
14348;SDS011;7258;50.376;8.742;2023-03-23T07:39:53;2.50;;;1.80;;
14348;SDS011;7258;50.376;8.742;2023-03-23T07:41:55;1.58;;;1.48;;
14348;SDS011;7258;50.376;8.742;2023-03-23T07:43:58;2.28;;;1.85;;
14348;SDS011;7258;50.376;8.742;2023-03-23T07:46:00;1.85;;;1.65;;
14348;SDS011;7258;50.376;8.742;2023-03-23T07:48:02;2.40;;;1.92;;
14348;SDS011;7258;50.376;8.742;2023-03-23T07:50:06;3.00;;;1.58;;
14348;SDS011;7258;50.376;8.742;2023-03-23T07:52:08;1.50;;;1.40;;
14348;SDS011;7258;50.376;8.742;2023-03-23T07:54:11;1.50;;;1.40;;
14348;SDS011;7258;50.376;8.742;2023-03-23T07:56:13;3.20;;;1.55;;
14348;SDS011;7258;50.376;8.742;2023-03-23T07:58:18;1.45;;;1.35;;
14348;SDS011;7258;50.376;8.742;2023-03-23T08:00:24;3.20;;;1.67;;
14348;SDS011;7258;50.376;8.742;2023-03-23T08:02:26;2.60;;;1.50;;
14348;SDS011;7258;50.376;8.742;2023-03-23T08:04:28;1.90;;;1.52;;
14348;SDS011;7258;50.376;8.742;2023-03-23T08:06:31;1.95;;;1.75;;
14348;SDS011;7258;50.376;8.742;2023-03-23T08:08:34;1.70;;;1.60;;
14348;SDS011;7258;50.376;8.742;2023-03-23T08:10:37;1.65;;;1.55;;
14348;SDS011;7258;50.376;8.742;2023-03-23T08:12:39;1.90;;;1.67;;
14348;SDS011;7258;50.376;8.742;2023-03-23T08:14:41;2.00;;;1.83;;
14348;SDS011;7258;50.376;8.742;2023-03-23T08:16:44;2.75;;;1.92;;
14348;SDS011;7258;50.376;8.742;2023-03-23T08:18:46;2.88;;;2.15;;
14348;SDS011;7258;50.376;8.742;2023-03-23T08:20:48;2.30;;;2.00;;
14348;SDS011;7258;50.376;8.742;2023-03-23T08:22:51;1.95;;;1.85;;
14348;SDS011;7258;50.376;8.742;2023-03-23T08:24:55;2.67;;;2.00;;
14348;SDS011;7258;50.376;8.742;2023-03-23T08:26:58;3.13;;;2.13;;
14348;SDS011;7258;50.376;8.742;2023-03-23T08:29:00;2.20;;;2.00;;
14348;SDS011;7258;50.376;8.742;2023-03-23T08:31:05;2.28;;;1.80;;
14348;SDS011;7258;50.376;8.742;2023-03-23T08:33:11;2.65;;;1.95;;
14348;SDS011;7258;50.376;8.742;2023-03-23T08:35:14;2.35;;;2.00;;
14348;SDS011;7258;50.376;8.742;2023-03-23T08:37:16;2.10;;;1.90;;
14348;SDS011;7258;50.376;8.742;2023-03-23T08:39:18;1.85;;;1.75;;
14348;SDS011;7258;50.376;8.742;2023-03-23T08:41:22;2.47;;;1.83;;
14348;SDS011;7258;50.376;8.742;2023-03-23T08:43:25;2.25;;;1.80;;
14348;SDS011;7258;50.376;8.742;2023-03-23T08:45:27;2.03;;;1.90;;
14348;SDS011;7258;50.376;8.742;2023-03-23T08:47:29;2.50;;;2.00;;
14348;SDS011;7258;50.376;8.742;2023-03-23T08:49:35;4.43;;;2.33;;
14348;SDS011;7258;50.376;8.742;2023-03-23T08:51:37;2.25;;;2.05;;
14348;SDS011;7258;50.376;8.742;2023-03-23T08:53:40;3.50;;;2.10;;
14348;SDS011;7258;50.376;8.742;2023-03-23T08:55:42;3.35;;;2.42;;
14348;SDS011;7258;50.376;8.742;2023-03-23T08:57:44;3.50;;;2.10;;
14348;SDS011;7258;50.376;8.742;2023-03-23T08:59:47;2.17;;;2.08;;
14348;SDS011;7258;50.376;8.742;2023-03-23T09:01:50;3.50;;;2.22;;
14348;SDS011;7258;50.376;8.742;2023-03-23T09:03:52;2.33;;;2.13;;
14348;SDS011;7258;50.376;8.742;2023-03-23T09:05:58;2.22;;;2.03;;
14348;SDS011;7258;50.376;8.742;2023-03-23T09:08:01;2.63;;;2.42;;
14348;SDS011;7258;50.376;8.742;2023-03-23T09:10:04;3.15;;;2.40;;
14348;SDS011;7258;50.376;8.742;2023-03-23T09:12:10;2.47;;;2.10;;
14348;SDS011;7258;50.376;8.742;2023-03-23T09:14:12;3.58;;;2.13;;
14348;SDS011;7258;50.376;8.742;2023-03-23T09:16:14;2.67;;;2.47;;
14348;SDS011;7258;50.376;8.742;2023-03-23T09:18:15;3.42;;;2.47;;
14348;SDS011;7258;50.376;8.742;2023-03-23T09:20:19;2.72;;;2.53;;
14348;SDS011;7258;50.376;8.742;2023-03-23T09:22:24;2.45;;;2.20;;
14348;SDS011;7258;50.376;8.742;2023-03-23T09:24:25;2.45;;;2.25;;
14348;SDS011;7258;50.376;8.742;2023-03-23T09:26:29;2.97;;;2.22;;
14348;SDS011;7258;50.376;8.742;2023-03-23T09:28:31;4.05;;;2.50;;
14348;SDS011;7258;50.376;8.742;2023-03-23T09:30:34;3.00;;;2.30;;
14348;SDS011;7258;50.376;8.742;2023-03-23T09:32:37;3.33;;;2.80;;
14348;SDS011;7258;50.376;8.742;2023-03-23T09:34:40;2.55;;;2.13;;
14348;SDS011;7258;50.376;8.742;2023-03-23T09:36:42;5.15;;;2.40;;
14348;SDS011;7258;50.376;8.742;2023-03-23T09:38:45;2.80;;;2.20;;
14348;SDS011;7258;50.376;8.742;2023-03-23T09:40:49;2.53;;;2.22;;
14348;SDS011;7258;50.376;8.742;2023-03-23T09:43:05;3.05;;;2.42;;
14348;SDS011;7258;50.376;8.742;2023-03-23T09:45:28;3.60;;;2.75;;
14348;SDS011;7258;50.376;8.742;2023-03-23T09:47:37;2.47;;;2.28;;
14348;SDS011;7258;50.376;8.742;2023-03-23T09:49:48;2.72;;;2.40;;
14348;SDS011;7258;50.376;8.742;2023-03-23T09:51:55;3.20;;;2.50;;
14348;SDS011;7258;50.376;8.742;2023-03-23T09:54:03;3.08;;;2.42;;
14348;SDS011;7258;50.376;8.742;2023-03-23T09:56:11;4.03;;;2.60;;
14348;SDS011;7258;50.376;8.742;2023-03-23T09:58:17;2.97;;;2.33;;
14348;SDS011;7258;50.376;8.742;2023-03-23T10:00:24;3.33;;;2.40;;
14348;SDS011;7258;50.376;8.742;2023-03-23T10:02:30;2.50;;;2.15;;
14348;SDS011;7258;50.376;8.742;2023-03-23T10:04:39;2.75;;;2.25;;
14348;SDS011;7258;50.376;8.742;2023-03-23T10:06:45;4.28;;;2.60;;
14348;SDS011;7258;50.376;8.742;2023-03-23T10:08:50;2.63;;;2.40;;
14348;SDS011;7258;50.376;8.742;2023-03-23T10:10:58;2.95;;;2.30;;
14348;SDS011;7258;50.376;8.742;2023-03-23T10:13:04;2.80;;;2.60;;
14348;SDS011;7258;50.376;8.742;2023-03-23T10:15:12;3.92;;;2.30;;
14348;SDS011;7258;50.376;8.742;2023-03-23T10:17:18;4.47;;;2.60;;
14348;SDS011;7258;50.376;8.742;2023-03-23T10:19:26;2.92;;;2.50;;
14348;SDS011;7258;50.376;8.742;2023-03-23T10:21:33;3.03;;;2.70;;
14348;SDS011;7258;50.376;8.742;2023-03-23T10:23:41;4.10;;;2.90;;
14348;SDS011;7258;50.376;8.742;2023-03-23T10:25:50;3.67;;;2.83;;
14348;SDS011;7258;50.376;8.742;2023-03-23T10:27:57;3.67;;;2.70;;
14348;SDS011;7258;50.376;8.742;2023-03-23T10:30:11;4.28;;;2.80;;
14348;SDS011;7258;50.376;8.742;2023-03-23T10:32:19;3.17;;;2.65;;
14348;SDS011;7258;50.376;8.742;2023-03-23T10:34:31;3.70;;;2.80;;
14348;SDS011;7258;50.376;8.742;2023-03-23T10:36:37;3.08;;;2.78;;
14348;SDS011;7258;50.376;8.742;2023-03-23T10:38:44;4.13;;;2.70;;
14348;SDS011;7258;50.376;8.742;2023-03-23T10:40:50;2.70;;;2.50;;
14348;SDS011;7258;50.376;8.742;2023-03-23T10:42:58;4.05;;;2.28;;
14348;SDS011;7258;50.376;8.742;2023-03-23T10:45:10;3.05;;;2.20;;
14348;SDS011;7258;50.376;8.742;2023-03-23T10:47:15;3.30;;;2.20;;
14348;SDS011;7258;50.376;8.742;2023-03-23T10:49:19;2.67;;;2.30;;
14348;SDS011;7258;50.376;8.742;2023-03-23T10:51:27;2.28;;;1.92;;
14348;SDS011;7258;50.376;8.742;2023-03-23T10:53:34;2.67;;;1.52;;
14348;SDS011;7258;50.376;8.742;2023-03-23T10:55:40;2.67;;;1.80;;
14348;SDS011;7258;50.376;8.742;2023-03-23T10:57:44;1.75;;;1.63;;
14348;SDS011;7258;50.376;8.742;2023-03-23T10:59:50;2.08;;;1.50;;
14348;SDS011;7258;50.376;8.742;2023-03-23T11:01:53;2.17;;;1.20;;
14348;SDS011;7258;50.376;8.742;2023-03-23T11:03:57;1.20;;;1.10;;
14348;SDS011;7258;50.376;8.742;2023-03-23T11:06:00;1.20;;;1.10;;
14348;SDS011;7258;50.376;8.742;2023-03-23T11:08:10;1.85;;;1.02;;
14348;SDS011;7258;50.376;8.742;2023-03-23T11:10:16;1.88;;;1.40;;
14348;SDS011;7258;50.376;8.742;2023-03-23T11:12:22;2.72;;;1.27;;
14348;SDS011;7258;50.376;8.742;2023-03-23T11:14:24;1.70;;;1.20;;
14348;SDS011;7258;50.376;8.742;2023-03-23T11:16:30;2.17;;;1.40;;
14348;SDS011;7258;50.376;8.742;2023-03-23T11:18:37;1.25;;;1.15;;
14348;SDS011;7258;50.376;8.742;2023-03-23T11:20:40;1.35;;;1.10;;
14348;SDS011;7258;50.376;8.742;2023-03-23T11:22:44;1.35;;;1.25;;
14348;SDS011;7258;50.376;8.742;2023-03-23T11:24:46;2.50;;;1.10;;
14348;SDS011;7258;50.376;8.742;2023-03-23T11:26:53;1.17;;;0.90;;
14348;SDS011;7258;50.376;8.742;2023-03-23T11:28:58;1.20;;;1.10;;
14348;SDS011;7258;50.376;8.742;2023-03-23T11:31:05;1.08;;;0.95;;
14348;SDS011;7258;50.376;8.742;2023-03-23T11:33:09;1.42;;;1.08;;
14348;SDS011;7258;50.376;8.742;2023-03-23T11:35:16;2.25;;;1.00;;
14348;SDS011;7258;50.376;8.742;2023-03-23T11:37:23;2.83;;;1.13;;
14348;SDS011;7258;50.376;8.742;2023-03-23T11:39:30;1.10;;;1.00;;
14348;SDS011;7258;50.376;8.742;2023-03-23T11:41:33;1.25;;;0.95;;
14348;SDS011;7258;50.376;8.742;2023-03-23T11:43:39;3.53;;;0.93;;
14348;SDS011;7258;50.376;8.742;2023-03-23T11:45:46;0.80;;;0.80;;
14348;SDS011;7258;50.376;8.742;2023-03-23T11:47:57;2.47;;;0.80;;
14348;SDS011;7258;50.376;8.742;2023-03-23T11:50:12;1.10;;;1.00;;
14348;SDS011;7258;50.376;8.742;2023-03-23T11:52:19;1.92;;;1.00;;
14348;SDS011;7258;50.376;8.742;2023-03-23T11:54:28;0.73;;;0.70;;
14348;SDS011;7258;50.376;8.742;2023-03-23T11:56:34;1.80;;;0.80;;
14348;SDS011;7258;50.376;8.742;2023-03-23T11:58:37;2.13;;;0.90;;
14348;SDS011;7258;50.376;8.742;2023-03-23T12:00:39;0.80;;;0.80;;
14348;SDS011;7258;50.376;8.742;2023-03-23T12:05:30;1.38;;;1.00;;
14348;SDS011;7258;50.376;8.742;2023-03-23T12:07:38;1.67;;;1.13;;
14348;SDS011;7258;50.376;8.742;2023-03-23T12:09:50;1.13;;;0.98;;
14348;SDS011;7258;50.376;8.742;2023-03-23T12:12:04;1.58;;;1.10;;
14348;SDS011;7258;50.376;8.742;2023-03-23T12:14:16;1.83;;;1.10;;
14348;SDS011;7258;50.376;8.742;2023-03-23T12:16:28;1.40;;;1.30;;
14348;SDS011;7258;50.376;8.742;2023-03-23T12:18:41;1.17;;;0.85;;
14348;SDS011;7258;50.376;8.742;2023-03-23T12:20:56;1.48;;;1.10;;
14348;SDS011;7258;50.376;8.742;2023-03-23T12:23:11;1.13;;;1.10;;
14348;SDS011;7258;50.376;8.742;2023-03-23T12:25:33;1.88;;;1.38;;
14348;SDS011;7258;50.376;8.742;2023-03-23T12:27:55;0.95;;;0.80;;
14348;SDS011;7258;50.376;8.742;2023-03-23T12:30:13;0.90;;;0.90;;
14348;SDS011;7258;50.376;8.742;2023-03-23T12:32:40;1.15;;;1.08;;
14348;SDS011;7258;50.376;8.742;2023-03-23T12:34:50;1.20;;;1.10;;
14348;SDS011;7258;50.376;8.742;2023-03-23T12:37:04;2.08;;;0.90;;
14348;SDS011;7258;50.376;8.742;2023-03-23T12:41:46;2.08;;;0.93;;
14348;SDS011;7258;50.376;8.742;2023-03-23T12:43:55;1.50;;;1.00;;
14348;SDS011;7258;50.376;8.742;2023-03-23T12:46:11;1.02;;;0.95;;
14348;SDS011;7258;50.376;8.742;2023-03-23T12:48:22;1.35;;;1.00;;
14348;SDS011;7258;50.376;8.742;2023-03-23T12:50:28;0.77;;;0.77;;
14348;SDS011;7258;50.376;8.742;2023-03-23T12:52:35;0.95;;;0.85;;
14348;SDS011;7258;50.376;8.742;2023-03-23T12:54:45;1.52;;;1.10;;